createdAt,value
2023-03-17T00:00:43.702Z,1.40
2023-03-17T00:03:29.533Z,1.38
2023-03-17T00:06:00.155Z,1.36
2023-03-17T00:08:37.272Z,1.35
2023-03-17T00:11:10.839Z,1.36
2023-03-17T00:13:39.100Z,1.34
2023-03-17T00:16:23.412Z,1.30
2023-03-17T00:18:54.854Z,1.31
2023-03-17T00:21:32.217Z,1.34
2023-03-17T00:24:01.464Z,1.37
2023-03-17T00:26:29.684Z,1.40
2023-03-17T00:28:58.969Z,1.39
2023-03-17T00:31:30.182Z,1.42
2023-03-17T00:33:58.585Z,1.44
2023-03-17T00:36:29.617Z,1.44
2023-03-17T00:38:58.621Z,1.44
2023-03-17T00:41:27.424Z,1.44
2023-03-17T00:43:55.783Z,1.43
2023-03-17T00:46:28.941Z,1.44
2023-03-17T00:49:00.019Z,1.45
2023-03-17T00:51:28.291Z,1.45
2023-03-17T00:53:57.179Z,1.43
2023-03-17T00:56:25.558Z,1.45
2023-03-17T00:58:53.728Z,1.46
2023-03-17T01:01:21.950Z,1.44
2023-03-17T01:03:50.179Z,1.42
2023-03-17T01:06:18.868Z,1.40
2023-03-17T01:08:47.663Z,1.37
2023-03-17T01:11:19.042Z,1.32
2023-03-17T01:13:48.814Z,1.27
2023-03-17T01:16:17.234Z,1.24
2023-03-17T01:18:45.934Z,1.20
2023-03-17T01:21:14.264Z,1.15
2023-03-17T01:23:43.885Z,1.12
2023-03-17T01:26:12.806Z,1.06
2023-03-17T01:28:41.037Z,1.02
2023-03-17T01:31:09.746Z,0.97
2023-03-17T01:33:38.710Z,0.93
2023-03-17T01:36:08.047Z,0.88
2023-03-17T01:38:36.606Z,0.85
2023-03-17T01:41:05.174Z,0.81
2023-03-17T01:43:33.484Z,0.77
2023-03-17T01:46:22.636Z,0.75
2023-03-17T01:49:09.625Z,0.72
2023-03-17T01:52:04.944Z,0.66
2023-03-17T01:54:48.423Z,0.63
2023-03-17T01:57:34.359Z,0.60
2023-03-17T02:00:08.273Z,0.57
2023-03-17T02:02:45.205Z,0.55
2023-03-17T02:05:18.147Z,0.54
2023-03-17T02:07:46.817Z,0.51
2023-03-17T02:10:19.501Z,0.48
2023-03-17T02:12:55.819Z,0.46
2023-03-17T02:15:24.958Z,0.43
2023-03-17T02:17:53.132Z,0.42
2023-03-17T02:20:24.584Z,0.42
2023-03-17T02:22:55.688Z,0.43
2023-03-17T02:25:26.525Z,0.42
2023-03-17T02:28:01.826Z,0.39
2023-03-17T02:30:30.179Z,0.38
2023-03-17T02:32:58.614Z,0.37
2023-03-17T02:35:27.346Z,0.35
2023-03-17T02:37:56.748Z,0.33
2023-03-17T02:40:25.024Z,0.31
2023-03-17T02:42:54.410Z,0.32
2023-03-17T02:45:23.529Z,0.32
2023-03-17T02:47:52.667Z,0.29
2023-03-17T02:50:24.682Z,0.25
2023-03-17T02:52:52.962Z,0.23
2023-03-17T02:55:21.164Z,0.20
2023-03-17T02:57:49.337Z,0.17
2023-03-17T03:00:18.030Z,0.14
2023-03-17T03:02:46.195Z,0.10
2023-03-17T03:05:15.168Z,0.07
2023-03-17T03:07:43.675Z,0.04
2023-03-17T03:10:11.819Z,0.02
2023-03-17T03:12:40.442Z,0.01
2023-03-17T03:15:09.887Z,0.02
2023-03-17T03:17:38.084Z,0.01
2023-03-17T03:20:06.872Z,0.03
2023-03-17T03:22:35.038Z,0.06
2023-03-17T03:25:03.628Z,0.08
2023-03-17T03:27:32.817Z,0.09
2023-03-17T03:30:01.402Z,0.10
2023-03-17T03:32:29.703Z,0.14
2023-03-17T03:34:58.271Z,0.16
2023-03-17T03:37:27.213Z,0.19
2023-03-17T03:39:55.428Z,0.24
2023-03-17T03:42:23.705Z,0.24
2023-03-17T03:44:52.795Z,0.20
2023-03-17T03:47:21.073Z,0.11
2023-03-17T03:49:49.241Z,0.09
2023-03-17T03:52:17.415Z,0.06
2023-03-17T03:54:45.588Z,0.05
2023-03-17T03:57:13.764Z,0.05
2023-03-17T03:59:42.043Z,0.05
2023-03-17T04:02:10.520Z,0.06
2023-03-17T04:04:38.963Z,0.06
2023-03-17T04:07:07.889Z,0.02
2023-03-17T04:09:37.602Z,-0.01
2023-03-17T04:12:07.062Z,-0.05
2023-03-17T04:14:35.277Z,-0.14
2023-03-17T04:17:05.400Z,-0.19
2023-03-17T04:19:33.570Z,-0.23
2023-03-17T04:22:01.761Z,-0.29
2023-03-17T04:24:30.142Z,-0.37
2023-03-17T04:26:58.396Z,-0.36
2023-03-17T04:29:26.979Z,-0.38
2023-03-17T04:31:55.542Z,-0.39
2023-03-17T04:34:24.048Z,-0.38
2023-03-17T04:36:52.323Z,-0.37
2023-03-17T04:39:20.502Z,-0.36
2023-03-17T04:41:48.780Z,-0.36
2023-03-17T04:44:16.941Z,-0.33
2023-03-17T04:46:45.217Z,-0.29
2023-03-17T04:49:13.389Z,-0.26
2023-03-17T04:51:42.236Z,-0.21
2023-03-17T04:54:11.367Z,0.18
2023-03-17T04:56:39.865Z,1.04
2023-03-17T04:59:09.211Z,2.01
2023-03-17T05:01:39.145Z,3.02
2023-03-17T05:04:09.087Z,3.83
2023-03-17T05:06:38.186Z,4.63
2023-03-17T05:09:06.869Z,5.41
2023-03-17T05:11:35.043Z,6.05
2023-03-17T05:14:03.422Z,6.50
2023-03-17T05:16:31.675Z,7.31
2023-03-17T05:18:59.869Z,7.89
2023-03-17T05:21:28.148Z,8.34
2023-03-17T05:23:56.318Z,8.95
2023-03-17T05:26:24.393Z,9.18
2023-03-17T05:28:52.566Z,9.52
2023-03-17T05:31:20.871Z,9.98
2023-03-17T05:33:49.421Z,10.03
2023-03-17T05:36:18.322Z,10.12
2023-03-17T05:38:46.831Z,10.96
2023-03-17T05:41:15.994Z,11.26
2023-03-17T05:43:44.176Z,11.37
2023-03-17T05:46:12.470Z,11.68
2023-03-17T05:48:41.131Z,12.25
2023-03-17T05:51:09.308Z,11.94
2023-03-17T05:53:37.473Z,12.30
2023-03-17T05:56:06.875Z,12.68
2023-03-17T05:58:35.766Z,13.48
2023-03-17T06:01:03.947Z,13.21
2023-03-17T06:03:32.165Z,13.20
2023-03-17T06:06:00.901Z,12.98
2023-03-17T06:08:29.893Z,11.99
2023-03-17T06:10:58.382Z,13.15
2023-03-17T06:13:26.463Z,13.41
2023-03-17T06:15:54.652Z,13.06
2023-03-17T06:18:23.467Z,13.94
2023-03-17T06:20:51.802Z,14.20
2023-03-17T06:23:20.060Z,14.22
2023-03-17T06:25:48.340Z,14.83
2023-03-17T06:28:17.128Z,15.50
2023-03-17T06:30:45.403Z,14.86
2023-03-17T06:33:13.752Z,14.85
2023-03-17T06:35:42.086Z,13.69
2023-03-17T06:38:10.841Z,14.29
2023-03-17T06:40:39.324Z,14.42
2023-03-17T06:43:07.909Z,15.15
2023-03-17T06:45:36.299Z,15.93
2023-03-17T06:48:04.697Z,16.23
2023-03-17T06:50:33.150Z,16.21
2023-03-17T06:53:01.323Z,15.51
2023-03-17T06:55:29.881Z,16.04
2023-03-17T06:57:59.084Z,15.75
2023-03-17T07:00:27.819Z,16.33
2023-03-17T07:02:56.786Z,15.75
2023-03-17T07:05:28.166Z,15.07
2023-03-17T07:07:56.401Z,15.61
2023-03-17T07:10:24.944Z,16.11
2023-03-17T07:12:53.344Z,16.00
2023-03-17T07:15:22.247Z,15.74
2023-03-17T07:17:50.696Z,15.82
2023-03-17T07:20:18.828Z,16.61
2023-03-17T07:22:47.298Z,16.94
2023-03-17T07:25:15.498Z,17.24
2023-03-17T07:27:43.732Z,17.81
2023-03-17T07:30:13.198Z,18.15
2023-03-17T07:32:43.602Z,18.30
2023-03-17T07:35:12.252Z,18.15
2023-03-17T07:37:40.958Z,18.86
2023-03-17T07:40:10.482Z,19.25
2023-03-17T07:42:38.858Z,18.07
2023-03-17T07:45:08.112Z,18.08
2023-03-17T07:47:36.447Z,17.53
2023-03-17T07:50:05.154Z,17.65
2023-03-17T07:52:34.586Z,17.73
2023-03-17T07:55:02.860Z,17.45
2023-03-17T07:57:31.105Z,16.93
2023-03-17T07:59:59.868Z,16.51
2023-03-17T08:02:28.263Z,15.53
2023-03-17T08:04:57.290Z,16.29
2023-03-17T08:07:25.932Z,16.27
2023-03-17T08:09:54.074Z,15.23
2023-03-17T08:12:22.224Z,15.27
2023-03-17T08:14:50.475Z,15.23
2023-03-17T08:17:18.773Z,14.84
2023-03-17T08:19:47.262Z,13.82
2023-03-17T08:22:15.529Z,13.89
2023-03-17T08:24:44.520Z,13.69
2023-03-17T08:27:13.126Z,12.99
2023-03-17T08:29:41.808Z,13.22
2023-03-17T08:32:10.706Z,13.54
2023-03-17T08:34:39.232Z,12.83
2023-03-17T08:37:10.103Z,12.76
2023-03-17T08:39:40.518Z,12.61
2023-03-17T08:42:08.627Z,12.41
2023-03-17T08:44:37.760Z,12.78
2023-03-17T08:47:06.117Z,12.90
2023-03-17T08:49:36.661Z,13.03
2023-03-17T08:52:05.416Z,13.13
2023-03-17T08:54:34.691Z,12.63
2023-03-17T08:57:04.198Z,12.12
2023-03-17T08:59:33.815Z,12.80
2023-03-17T09:02:02.001Z,12.38
2023-03-17T09:04:30.921Z,12.77
2023-03-17T09:07:03.700Z,12.46
2023-03-17T09:09:35.370Z,12.57
2023-03-17T09:12:06.504Z,12.45
2023-03-17T09:14:43.161Z,12.92
2023-03-17T09:17:14.767Z,12.98
2023-03-17T09:19:43.860Z,12.33
2023-03-17T09:22:17.737Z,12.38
2023-03-17T09:24:46.770Z,12.10
2023-03-17T09:27:14.939Z,12.52
2023-03-17T09:29:43.437Z,13.16
2023-03-17T09:32:11.574Z,13.33
2023-03-17T09:34:39.802Z,13.07
2023-03-17T09:37:10.124Z,13.00
2023-03-17T09:39:38.532Z,13.34
2023-03-17T09:42:16.825Z,13.04
2023-03-17T09:45:05.637Z,12.72
2023-03-17T09:47:48.020Z,13.11
2023-03-17T09:50:22.383Z,13.28
2023-03-17T09:52:52.250Z,13.16
2023-03-17T09:55:28.398Z,13.48
2023-03-17T09:57:58.932Z,13.16
2023-03-17T10:00:31.259Z,12.75
2023-03-17T10:03:00.318Z,12.63
2023-03-17T10:05:32.247Z,12.72
2023-03-17T10:08:05.366Z,13.16
2023-03-17T10:10:43.297Z,13.19
2023-03-17T10:13:34.069Z,12.60
2023-03-17T10:16:17.919Z,12.65
2023-03-17T10:19:12.301Z,12.99
2023-03-17T10:21:51.587Z,13.53
2023-03-17T10:24:21.935Z,13.35
2023-03-17T10:26:53.425Z,13.13
2023-03-17T10:29:24.152Z,12.79
2023-03-17T10:31:56.370Z,12.85
2023-03-17T10:34:32.866Z,12.72
2023-03-17T10:37:06.865Z,13.06
2023-03-17T10:39:47.634Z,13.41
2023-03-17T10:42:27.318Z,13.01
2023-03-17T10:44:57.037Z,13.20
2023-03-17T10:47:31.817Z,12.85
2023-03-17T10:50:17.132Z,12.74
2023-03-17T10:52:49.472Z,12.95
2023-03-17T10:55:21.557Z,12.98
2023-03-17T10:58:28.379Z,13.17
2023-03-17T11:01:00.525Z,13.48
2023-03-17T11:03:36.350Z,13.21
2023-03-17T11:06:04.573Z,13.26
2023-03-17T11:08:40.469Z,13.37
2023-03-17T11:11:30.945Z,13.22
2023-03-17T11:14:27.294Z,12.71
2023-03-17T11:17:00.503Z,12.71
2023-03-17T11:19:37.717Z,12.63
2023-03-17T11:22:30.250Z,12.88
2023-03-17T11:24:58.540Z,13.01
2023-03-17T11:27:51.449Z,12.45
2023-03-17T11:31:08.605Z,12.05
2023-03-17T11:33:57.202Z,12.05
2023-03-17T11:37:20.192Z,11.89
2023-03-17T11:40:07.952Z,11.52
2023-03-17T11:42:48.004Z,11.63
2023-03-17T11:45:44.113Z,11.21
2023-03-17T11:48:31.960Z,11.52
2023-03-17T11:51:08.575Z,11.42
2023-03-17T11:54:18.420Z,11.01
2023-03-17T11:57:00.030Z,11.26
2023-03-17T11:59:54.880Z,11.31
2023-03-17T12:02:32.152Z,11.20
2023-03-17T12:05:02.910Z,11.17
2023-03-17T12:07:51.499Z,11.05
2023-03-17T12:10:26.537Z,11.05
2023-03-17T12:13:01.377Z,10.92
2023-03-17T12:15:45.786Z,10.61
2023-03-17T12:18:27.922Z,10.55
2023-03-17T12:21:04.657Z,10.41
2023-03-17T12:23:50.906Z,10.47
2023-03-17T12:26:33.436Z,10.40
2023-03-17T12:29:43.313Z,10.38
2023-03-17T12:32:24.735Z,10.22
2023-03-17T12:34:57.368Z,10.29
2023-03-17T12:37:30.328Z,10.28
2023-03-17T12:40:09.535Z,10.38
2023-03-17T12:42:42.862Z,10.36
2023-03-17T12:45:42.164Z,10.33
2023-03-17T12:48:29.486Z,10.23
2023-03-17T12:51:37.919Z,10.20
2023-03-17T12:54:27.281Z,10.30
2023-03-17T12:57:03.800Z,10.38
2023-03-17T12:59:34.221Z,10.26
2023-03-17T13:02:15.751Z,10.15
2023-03-17T13:05:01.086Z,10.08
2023-03-17T13:07:47.942Z,10.15
2023-03-17T13:10:22.227Z,9.93
2023-03-17T13:12:50.536Z,9.83
2023-03-17T13:15:23.728Z,9.86
2023-03-17T13:18:10.843Z,9.84
2023-03-17T13:20:57.661Z,9.86
2023-03-17T13:23:48.165Z,9.65
2023-03-17T13:26:21.850Z,9.61
2023-03-17T13:28:51.895Z,9.41
2023-03-17T13:31:32.086Z,9.32
2023-03-17T13:34:16.371Z,9.34
2023-03-17T13:36:55.577Z,9.46
2023-03-17T13:39:52.810Z,9.60
2023-03-17T13:42:46.043Z,9.55
2023-03-17T13:45:31.091Z,9.45
2023-03-17T13:48:36.542Z,9.19
2023-03-17T13:51:27.586Z,9.07
2023-03-17T13:54:18.974Z,8.96
2023-03-17T13:56:51.419Z,8.71
2023-03-17T13:59:36.044Z,8.79
2023-03-17T14:02:16.733Z,8.80
2023-03-17T14:05:02.601Z,8.91
2023-03-17T14:07:43.226Z,9.06
2023-03-17T14:10:32.118Z,9.07
2023-03-17T14:13:23.711Z,9.08
2023-03-17T14:16:12.480Z,9.04
2023-03-17T14:18:47.512Z,8.96
2023-03-17T14:21:23.658Z,9.03
2023-03-17T14:23:56.238Z,9.02
2023-03-17T14:26:30.719Z,9.04
2023-03-17T14:29:05.008Z,9.05
2023-03-17T14:31:33.608Z,9.11
2023-03-17T14:34:02.051Z,9.01
2023-03-17T14:36:34.595Z,9.00
2023-03-17T14:39:02.789Z,8.97
2023-03-17T14:41:34.570Z,8.92
2023-03-17T14:44:03.337Z,8.99
2023-03-17T14:46:35.503Z,9.00
2023-03-17T14:49:14.528Z,8.88
2023-03-17T14:51:43.317Z,8.88
2023-03-17T14:54:16.225Z,8.83
2023-03-17T14:56:49.002Z,8.80
2023-03-17T14:59:26.055Z,8.71
2023-03-17T15:01:57.415Z,8.64
2023-03-17T15:04:34.375Z,8.70
2023-03-17T15:07:09.136Z,8.70
2023-03-17T15:09:39.499Z,8.67
2023-03-17T15:12:23.528Z,8.61
2023-03-17T15:14:58.610Z,8.53
2023-03-17T15:17:31.209Z,8.47
2023-03-17T15:20:14.456Z,8.28
2023-03-17T15:22:48.600Z,8.19
2023-03-17T15:25:34.640Z,8.04
2023-03-17T15:28:08.015Z,7.94
2023-03-17T15:30:46.705Z,7.89
2023-03-17T15:33:33.556Z,7.79
2023-03-17T15:36:02.304Z,7.72
2023-03-17T15:38:30.543Z,7.64
2023-03-17T15:40:58.805Z,7.59
2023-03-17T15:43:26.934Z,7.53
2023-03-17T15:46:01.451Z,7.48
2023-03-17T15:48:35.318Z,7.42
2023-03-17T15:51:05.605Z,7.35
2023-03-17T15:53:33.784Z,7.27
2023-03-17T15:56:01.977Z,7.21
2023-03-17T15:58:30.164Z,7.15
2023-03-17T16:01:00.246Z,7.05
2023-03-17T16:03:34.134Z,7.00
2023-03-17T16:06:04.786Z,6.95
2023-03-17T16:08:34.104Z,6.89
2023-03-17T16:11:02.418Z,6.81
2023-03-17T16:13:30.755Z,6.73
2023-03-17T16:16:01.158Z,6.66
2023-03-17T16:18:34.158Z,6.60
2023-03-17T16:21:04.163Z,6.55
2023-03-17T16:23:37.147Z,6.49
2023-03-17T16:26:14.825Z,6.45
2023-03-17T16:28:47.805Z,6.42
2023-03-17T16:31:28.387Z,6.42
2023-03-17T16:33:57.422Z,6.41
2023-03-17T16:36:26.146Z,6.41
2023-03-17T16:38:54.374Z,6.41
2023-03-17T16:41:27.756Z,6.38
2023-03-17T16:44:02.824Z,6.37
2023-03-17T16:46:35.615Z,6.34
2023-03-17T16:49:05.735Z,6.32
2023-03-17T16:51:33.878Z,6.31
2023-03-17T16:54:02.051Z,6.29
2023-03-17T16:56:31.855Z,6.26
2023-03-17T16:59:01.375Z,6.23
2023-03-17T17:01:30.289Z,6.20
2023-03-17T17:03:58.540Z,6.17
2023-03-17T17:06:27.016Z,6.13
2023-03-17T17:08:55.188Z,6.08
2023-03-17T17:11:23.879Z,6.06
2023-03-17T17:13:52.155Z,6.02
2023-03-17T17:16:26.907Z,5.97
2023-03-17T17:18:56.156Z,5.94
2023-03-17T17:21:24.862Z,5.85
2023-03-17T17:23:54.266Z,5.84
2023-03-17T17:26:23.340Z,5.79
2023-03-17T17:28:51.540Z,5.76
2023-03-17T17:31:20.178Z,5.71
2023-03-17T17:33:48.609Z,5.67
2023-03-17T17:36:17.960Z,5.63
2023-03-17T17:38:46.276Z,5.58
2023-03-17T17:41:14.450Z,5.56
2023-03-17T17:43:42.763Z,5.52
2023-03-17T17:46:14.952Z,5.49
2023-03-17T17:48:44.092Z,5.46
2023-03-17T17:51:12.476Z,5.41
2023-03-17T17:53:41.153Z,5.35
2023-03-17T17:56:14.934Z,5.31
2023-03-17T17:58:43.950Z,5.27
2023-03-17T18:01:14.143Z,5.21
2023-03-17T18:03:43.251Z,5.14
2023-03-17T18:06:13.295Z,5.08
2023-03-17T18:08:41.764Z,5.01
2023-03-17T18:11:10.142Z,4.92
2023-03-17T18:13:39.235Z,4.84
2023-03-17T18:16:12.638Z,4.76
2023-03-17T18:18:42.549Z,4.66
2023-03-17T18:21:11.043Z,4.55
2023-03-17T18:23:47.144Z,4.46
2023-03-17T18:26:17.245Z,4.36
2023-03-17T18:28:45.691Z,4.30
2023-03-17T18:31:19.152Z,4.22
2023-03-17T18:33:49.691Z,4.14
2023-03-17T18:36:20.044Z,4.06
2023-03-17T18:38:48.415Z,3.98
2023-03-17T18:41:16.588Z,3.90
2023-03-17T18:43:45.173Z,3.82
2023-03-17T18:46:14.024Z,3.73
2023-03-17T18:48:42.253Z,3.64
2023-03-17T18:51:10.716Z,3.53
2023-03-17T18:53:39.437Z,3.43
2023-03-17T18:56:08.401Z,3.29
2023-03-17T18:58:36.886Z,3.13
2023-03-17T19:01:05.324Z,3.01
2023-03-17T19:03:33.882Z,2.89
2023-03-17T19:06:15.839Z,2.76
2023-03-17T19:08:45.132Z,2.59
2023-03-17T19:11:16.653Z,2.44
2023-03-17T19:13:46.611Z,2.29
2023-03-17T19:16:16.911Z,2.16
2023-03-17T19:18:46.385Z,2.01
2023-03-17T19:21:14.810Z,1.85
2023-03-17T19:23:43.082Z,1.75
2023-03-17T19:26:11.878Z,1.64
2023-03-17T19:28:40.354Z,1.55
2023-03-17T19:31:09.624Z,1.46
2023-03-17T19:33:37.940Z,1.35
2023-03-17T19:36:10.629Z,1.23
2023-03-17T19:38:39.403Z,1.14
2023-03-17T19:41:07.668Z,1.05
2023-03-17T19:43:41.283Z,0.96
2023-03-17T19:46:12.133Z,0.88
2023-03-17T19:48:40.939Z,0.76
2023-03-17T19:51:09.792Z,0.63
2023-03-17T19:53:38.371Z,0.52
2023-03-17T19:56:07.328Z,0.44
2023-03-17T19:58:35.542Z,0.36
2023-03-17T20:01:05.454Z,0.30
2023-03-17T20:03:35.536Z,0.27
2023-03-17T20:06:06.680Z,0.23
2023-03-17T20:08:36.630Z,0.16
2023-03-17T20:11:06.132Z,0.08
2023-03-17T20:13:35.517Z,0.02
2023-03-17T20:16:05.945Z,-0.03
2023-03-17T20:18:34.538Z,-0.10
2023-03-17T20:21:05.890Z,-0.17
2023-03-17T20:23:35.703Z,-0.24
2023-03-17T20:26:04.896Z,-0.31
2023-03-17T20:28:33.175Z,-0.37
2023-03-17T20:31:05.358Z,-0.43
2023-03-17T20:33:34.652Z,-0.48
2023-03-17T20:36:03.907Z,-0.50
2023-03-17T20:38:37.137Z,-0.51
2023-03-17T20:41:15.109Z,-0.55
2023-03-17T20:43:43.616Z,-0.59
2023-03-17T20:46:23.853Z,-0.62
2023-03-17T20:48:58.732Z,-0.64
2023-03-17T20:51:27.802Z,-0.64
2023-03-17T20:53:57.012Z,-0.61
2023-03-17T20:56:26.825Z,-0.58
2023-03-17T20:58:56.426Z,-0.55
2023-03-17T21:01:25.877Z,-0.51
2023-03-17T21:03:54.397Z,-0.46
2023-03-17T21:06:25.887Z,-0.42
2023-03-17T21:08:55.656Z,-0.39
2023-03-17T21:11:23.840Z,-0.35
2023-03-17T21:13:52.725Z,-0.32
2023-03-17T21:16:24.862Z,-0.31
2023-03-17T21:18:53.682Z,-0.28
2023-03-17T21:21:22.812Z,-0.26
2023-03-17T21:23:51.569Z,-0.25
2023-03-17T21:26:20.361Z,-0.25
2023-03-17T21:28:48.886Z,-0.24
2023-03-17T21:31:17.547Z,-0.23
2023-03-17T21:33:48.765Z,-0.22
2023-03-17T21:36:17.651Z,-0.22
2023-03-17T21:38:45.832Z,-0.20
2023-03-17T21:41:22.512Z,-0.17
2023-03-17T21:43:50.774Z,-0.16
2023-03-17T21:46:18.949Z,-0.14
2023-03-17T21:48:47.122Z,-0.14
2023-03-17T21:51:15.296Z,-0.14
2023-03-17T21:53:43.681Z,-0.15
2023-03-17T21:56:12.609Z,-0.15
2023-03-17T21:58:41.180Z,-0.14
2023-03-17T22:01:10.301Z,-0.13
2023-03-17T22:03:40.158Z,-0.12
2023-03-17T22:06:09.972Z,-0.13
2023-03-17T22:08:38.153Z,-0.16
2023-03-17T22:11:08.369Z,-0.16
2023-03-17T22:13:37.685Z,-0.17
2023-03-17T22:16:06.397Z,-0.22
2023-03-17T22:18:35.750Z,-0.27
2023-03-17T22:21:05.487Z,-0.30
2023-03-17T22:23:38.242Z,-0.35
2023-03-17T22:26:06.925Z,-0.37
2023-03-17T22:28:35.428Z,-0.41
2023-03-17T22:31:10.044Z,-0.43
2023-03-17T22:33:39.250Z,-0.41
2023-03-17T22:36:07.984Z,-0.43
2023-03-17T22:38:36.607Z,-0.47
2023-03-17T22:41:13.025Z,-0.47
2023-03-17T22:43:42.489Z,-0.47
2023-03-17T22:46:11.779Z,-0.47
2023-03-17T22:48:41.178Z,-0.47
2023-03-17T22:51:12.203Z,-0.51
2023-03-17T22:53:41.423Z,-0.50
2023-03-17T22:56:11.434Z,-0.50
2023-03-17T22:58:40.646Z,-0.51
2023-03-17T23:01:12.465Z,-0.53
2023-03-17T23:03:42.101Z,-0.52
2023-03-17T23:06:11.870Z,-0.51
2023-03-17T23:08:42.989Z,-0.48
2023-03-17T23:11:14.481Z,-0.43
2023-03-17T23:13:42.842Z,-0.39
2023-03-17T23:16:12.701Z,-0.36
2023-03-17T23:18:41.335Z,-0.34
2023-03-17T23:21:10.343Z,-0.32
2023-03-17T23:23:38.956Z,-0.34
2023-03-17T23:26:07.538Z,-0.32
2023-03-17T23:28:36.229Z,-0.29
2023-03-17T23:31:04.946Z,-0.24
2023-03-17T23:33:34.213Z,-0.20
2023-03-17T23:36:02.511Z,-0.18
2023-03-17T23:38:30.772Z,-0.15
2023-03-17T23:40:58.934Z,-0.10
2023-03-17T23:43:27.617Z,-0.08
2023-03-17T23:45:55.912Z,-0.06
2023-03-17T23:48:24.271Z,-0.02
2023-03-17T23:50:53.257Z,0.01
2023-03-17T23:53:23.595Z,0.04
2023-03-17T23:55:52.967Z,0.08
2023-03-17T23:58:22.087Z,0.11
